sensor_id;sensor_type;location;lat;lon;timestamp;temperature;humidity
38860;DHT22;24609;48.316;16.174;2023-02-19T00:01:44;11.90;99.90
38860;DHT22;24609;48.316;16.174;2023-02-19T00:04:16;11.80;99.90
38860;DHT22;24609;48.316;16.174;2023-02-19T00:06:43;11.70;99.90
38860;DHT22;24609;48.316;16.174;2023-02-19T00:09:14;11.70;99.90
38860;DHT22;24609;48.316;16.174;2023-02-19T00:11:41;11.60;99.90
38860;DHT22;24609;48.316;16.174;2023-02-19T00:14:07;11.60;99.90
38860;DHT22;24609;48.316;16.174;2023-02-19T00:16:36;11.60;99.90
38860;DHT22;24609;48.316;16.174;2023-02-19T00:19:04;11.60;99.90
38860;DHT22;24609;48.316;16.174;2023-02-19T00:21:30;11.50;99.90
38860;DHT22;24609;48.316;16.174;2023-02-19T00:23:59;11.50;99.90
38860;DHT22;24609;48.316;16.174;2023-02-19T00:26:25;11.50;99.90
38860;DHT22;24609;48.316;16.174;2023-02-19T00:28:53;11.50;99.90
38860;DHT22;24609;48.316;16.174;2023-02-19T00:31:20;11.40;99.90
38860;DHT22;24609;48.316;16.174;2023-02-19T00:33:47;11.40;99.90
38860;DHT22;24609;48.316;16.174;2023-02-19T00:36:14;11.40;99.90
38860;DHT22;24609;48.316;16.174;2023-02-19T00:38:41;11.40;99.90
38860;DHT22;24609;48.316;16.174;2023-02-19T00:41:08;11.30;99.90
38860;DHT22;24609;48.316;16.174;2023-02-19T00:46:13;11.30;99.90
38860;DHT22;24609;48.316;16.174;2023-02-19T00:48:39;11.30;99.90
38860;DHT22;24609;48.316;16.174;2023-02-19T00:51:05;11.20;99.90
38860;DHT22;24609;48.316;16.174;2023-02-19T00:53:31;11.10;99.90
38860;DHT22;24609;48.316;16.174;2023-02-19T00:55:57;11.10;99.90
38860;DHT22;24609;48.316;16.174;2023-02-19T00:58:22;11.10;99.90
38860;DHT22;24609;48.316;16.174;2023-02-19T01:00:48;11.10;99.90
38860;DHT22;24609;48.316;16.174;2023-02-19T01:03:13;11.10;99.90
38860;DHT22;24609;48.316;16.174;2023-02-19T01:05:39;11.10;99.90
38860;DHT22;24609;48.316;16.174;2023-02-19T01:08:05;11.10;99.90
38860;DHT22;24609;48.316;16.174;2023-02-19T01:10:30;11.00;99.90
38860;DHT22;24609;48.316;16.174;2023-02-19T01:12:56;11.00;99.90
38860;DHT22;24609;48.316;16.174;2023-02-19T01:15:22;11.00;99.90
38860;DHT22;24609;48.316;16.174;2023-02-19T01:17:47;11.00;99.90
38860;DHT22;24609;48.316;16.174;2023-02-19T01:20:13;11.00;99.90
38860;DHT22;24609;48.316;16.174;2023-02-19T01:22:39;11.10;99.90
38860;DHT22;24609;48.316;16.174;2023-02-19T01:25:05;11.20;99.90
38860;DHT22;24609;48.316;16.174;2023-02-19T01:27:30;11.10;99.90
38860;DHT22;24609;48.316;16.174;2023-02-19T01:29:56;11.20;99.90
38860;DHT22;24609;48.316;16.174;2023-02-19T01:32:22;11.20;99.90
38860;DHT22;24609;48.316;16.174;2023-02-19T01:34:48;11.30;99.90
38860;DHT22;24609;48.316;16.174;2023-02-19T01:37:13;11.40;99.90
38860;DHT22;24609;48.316;16.174;2023-02-19T01:39:39;11.50;99.90
38860;DHT22;24609;48.316;16.174;2023-02-19T01:42:13;11.40;99.90
38860;DHT22;24609;48.316;16.174;2023-02-19T01:47:14;11.40;99.90
38860;DHT22;24609;48.316;16.174;2023-02-19T01:49:54;11.40;99.90
38860;DHT22;24609;48.316;16.174;2023-02-19T01:52:25;11.40;99.90
38860;DHT22;24609;48.316;16.174;2023-02-19T01:54:52;11.40;99.90
38860;DHT22;24609;48.316;16.174;2023-02-19T01:57:22;11.50;99.90
38860;DHT22;24609;48.316;16.174;2023-02-19T01:59:51;11.40;99.90
38860;DHT22;24609;48.316;16.174;2023-02-19T02:02:21;11.40;99.90
38860;DHT22;24609;48.316;16.174;2023-02-19T02:04:47;11.40;99.90
38860;DHT22;24609;48.316;16.174;2023-02-19T02:07:13;11.40;99.90
38860;DHT22;24609;48.316;16.174;2023-02-19T02:09:57;11.40;99.90
38860;DHT22;24609;48.316;16.174;2023-02-19T02:12:57;11.40;99.90
38860;DHT22;24609;48.316;16.174;2023-02-19T02:15:28;11.30;99.90
38860;DHT22;24609;48.316;16.174;2023-02-19T02:18:17;11.30;99.90
38860;DHT22;24609;48.316;16.174;2023-02-19T02:21:21;11.30;99.90
38860;DHT22;24609;48.316;16.174;2023-02-19T02:27:12;11.20;99.90
38860;DHT22;24609;48.316;16.174;2023-02-19T02:32:55;11.30;99.90
38860;DHT22;24609;48.316;16.174;2023-02-19T02:35:25;11.30;99.90
38860;DHT22;24609;48.316;16.174;2023-02-19T02:37:56;11.30;99.90
38860;DHT22;24609;48.316;16.174;2023-02-19T02:40:23;11.20;99.90
38860;DHT22;24609;48.316;16.174;2023-02-19T02:42:48;11.20;99.90
38860;DHT22;24609;48.316;16.174;2023-02-19T02:48:10;11.20;99.90
38860;DHT22;24609;48.316;16.174;2023-02-19T02:53:47;11.20;99.90
38860;DHT22;24609;48.316;16.174;2023-02-19T02:56:33;11.20;99.90
38860;DHT22;24609;48.316;16.174;2023-02-19T02:59:03;11.10;99.90
38860;DHT22;24609;48.316;16.174;2023-02-19T03:01:35;11.10;99.90
38860;DHT22;24609;48.316;16.174;2023-02-19T03:07:35;10.90;99.90
38860;DHT22;24609;48.316;16.174;2023-02-19T03:10:05;10.90;99.90
38860;DHT22;24609;48.316;16.174;2023-02-19T03:12:33;10.80;99.90
38860;DHT22;24609;48.316;16.174;2023-02-19T03:15:19;10.70;99.90
38860;DHT22;24609;48.316;16.174;2023-02-19T03:18:06;10.70;99.90
38860;DHT22;24609;48.316;16.174;2023-02-19T03:20:55;10.60;99.90
38860;DHT22;24609;48.316;16.174;2023-02-19T03:23:22;10.60;99.90
38860;DHT22;24609;48.316;16.174;2023-02-19T03:26:10;10.60;99.90
38860;DHT22;24609;48.316;16.174;2023-02-19T03:28:39;10.60;99.90
38860;DHT22;24609;48.316;16.174;2023-02-19T03:31:24;10.60;99.90
38860;DHT22;24609;48.316;16.174;2023-02-19T03:33:58;10.60;99.90
38860;DHT22;24609;48.316;16.174;2023-02-19T03:36:33;10.60;99.90
38860;DHT22;24609;48.316;16.174;2023-02-19T03:39:02;10.60;99.90
38860;DHT22;24609;48.316;16.174;2023-02-19T03:41:56;10.60;99.90
38860;DHT22;24609;48.316;16.174;2023-02-19T03:57:33;10.30;99.90
38860;DHT22;24609;48.316;16.174;2023-02-19T04:02:45;10.30;99.90
38860;DHT22;24609;48.316;16.174;2023-02-19T04:05:21;10.30;99.90
38860;DHT22;24609;48.316;16.174;2023-02-19T04:07:50;10.30;99.90
38860;DHT22;24609;48.316;16.174;2023-02-19T04:10:18;10.40;99.90
38860;DHT22;24609;48.316;16.174;2023-02-19T04:12:48;10.30;99.90
38860;DHT22;24609;48.316;16.174;2023-02-19T04:15:20;10.30;99.90
38860;DHT22;24609;48.316;16.174;2023-02-19T04:17:53;10.30;99.90
38860;DHT22;24609;48.316;16.174;2023-02-19T04:20:21;10.30;99.90
38860;DHT22;24609;48.316;16.174;2023-02-19T04:22:48;10.30;99.90
38860;DHT22;24609;48.316;16.174;2023-02-19T04:25:14;10.30;99.90
38860;DHT22;24609;48.316;16.174;2023-02-19T04:27:40;10.40;99.90
38860;DHT22;24609;48.316;16.174;2023-02-19T04:30:11;10.30;99.90
38860;DHT22;24609;48.316;16.174;2023-02-19T04:32:36;10.30;99.90
38860;DHT22;24609;48.316;16.174;2023-02-19T04:35:03;10.30;99.90
38860;DHT22;24609;48.316;16.174;2023-02-19T04:37:29;10.20;99.90
38860;DHT22;24609;48.316;16.174;2023-02-19T04:39:54;10.20;99.90
38860;DHT22;24609;48.316;16.174;2023-02-19T04:42:20;10.30;99.90
38860;DHT22;24609;48.316;16.174;2023-02-19T04:44:45;10.30;99.90
38860;DHT22;24609;48.316;16.174;2023-02-19T04:47:11;10.30;99.90
38860;DHT22;24609;48.316;16.174;2023-02-19T04:49:37;10.40;99.90
38860;DHT22;24609;48.316;16.174;2023-02-19T04:52:02;10.40;99.90
38860;DHT22;24609;48.316;16.174;2023-02-19T04:54:28;10.40;99.90
38860;DHT22;24609;48.316;16.174;2023-02-19T04:56:54;10.40;99.90
38860;DHT22;24609;48.316;16.174;2023-02-19T04:59:19;10.40;99.90
38860;DHT22;24609;48.316;16.174;2023-02-19T05:01:45;10.40;99.90
38860;DHT22;24609;48.316;16.174;2023-02-19T05:04:11;10.50;99.90
38860;DHT22;24609;48.316;16.174;2023-02-19T05:06:36;10.40;99.90
38860;DHT22;24609;48.316;16.174;2023-02-19T05:09:02;10.40;99.90
38860;DHT22;24609;48.316;16.174;2023-02-19T05:11:28;10.30;99.90
38860;DHT22;24609;48.316;16.174;2023-02-19T05:13:54;10.30;99.90
38860;DHT22;24609;48.316;16.174;2023-02-19T05:16:20;10.30;99.90
38860;DHT22;24609;48.316;16.174;2023-02-19T05:18:46;10.20;99.90
38860;DHT22;24609;48.316;16.174;2023-02-19T05:21:13;10.20;99.90
38860;DHT22;24609;48.316;16.174;2023-02-19T05:23:39;10.10;99.90
38860;DHT22;24609;48.316;16.174;2023-02-19T05:26:16;10.10;99.90
38860;DHT22;24609;48.316;16.174;2023-02-19T05:28:44;10.10;99.90
38860;DHT22;24609;48.316;16.174;2023-02-19T05:31:10;10.10;99.90
38860;DHT22;24609;48.316;16.174;2023-02-19T05:33:36;10.10;99.90
38860;DHT22;24609;48.316;16.174;2023-02-19T05:36:08;10.10;99.90
38860;DHT22;24609;48.316;16.174;2023-02-19T05:38:35;10.10;99.90
38860;DHT22;24609;48.316;16.174;2023-02-19T05:41:19;10.10;99.90
38860;DHT22;24609;48.316;16.174;2023-02-19T05:43:46;10.10;99.90
38860;DHT22;24609;48.316;16.174;2023-02-19T05:46:13;10.10;99.90
38860;DHT22;24609;48.316;16.174;2023-02-19T05:48:39;10.10;99.90
38860;DHT22;24609;48.316;16.174;2023-02-19T05:51:10;10.10;99.90
38860;DHT22;24609;48.316;16.174;2023-02-19T05:53:36;10.00;99.90
38860;DHT22;24609;48.316;16.174;2023-02-19T05:56:02;10.10;99.90
38860;DHT22;24609;48.316;16.174;2023-02-19T05:58:28;10.10;99.90
38860;DHT22;24609;48.316;16.174;2023-02-19T06:00:54;10.20;99.90
38860;DHT22;24609;48.316;16.174;2023-02-19T06:03:21;10.10;99.90
38860;DHT22;24609;48.316;16.174;2023-02-19T06:05:47;10.20;99.90
38860;DHT22;24609;48.316;16.174;2023-02-19T06:08:13;10.20;99.90
38860;DHT22;24609;48.316;16.174;2023-02-19T06:10:40;10.30;99.90
38860;DHT22;24609;48.316;16.174;2023-02-19T06:13:07;10.30;99.90
38860;DHT22;24609;48.316;16.174;2023-02-19T06:15:33;10.30;99.90
38860;DHT22;24609;48.316;16.174;2023-02-19T06:17:58;10.30;99.90
38860;DHT22;24609;48.316;16.174;2023-02-19T06:20:24;10.40;99.90
38860;DHT22;24609;48.316;16.174;2023-02-19T06:22:50;10.40;99.90
38860;DHT22;24609;48.316;16.174;2023-02-19T06:25:17;10.50;99.90
38860;DHT22;24609;48.316;16.174;2023-02-19T06:27:42;10.50;99.90
38860;DHT22;24609;48.316;16.174;2023-02-19T06:30:09;10.60;99.90
38860;DHT22;24609;48.316;16.174;2023-02-19T06:32:34;10.60;99.90
38860;DHT22;24609;48.316;16.174;2023-02-19T06:35:00;10.60;99.90
38860;DHT22;24609;48.316;16.174;2023-02-19T06:37:26;10.60;99.90
38860;DHT22;24609;48.316;16.174;2023-02-19T06:39:51;10.60;99.90
38860;DHT22;24609;48.316;16.174;2023-02-19T06:42:17;10.70;99.90
38860;DHT22;24609;48.316;16.174;2023-02-19T06:44:43;10.70;99.90
38860;DHT22;24609;48.316;16.174;2023-02-19T06:47:08;10.80;99.90
38860;DHT22;24609;48.316;16.174;2023-02-19T06:49:34;10.70;99.90
38860;DHT22;24609;48.316;16.174;2023-02-19T06:51:59;10.70;99.90
38860;DHT22;24609;48.316;16.174;2023-02-19T06:54:26;10.70;99.90
38860;DHT22;24609;48.316;16.174;2023-02-19T06:56:52;10.70;99.90
38860;DHT22;24609;48.316;16.174;2023-02-19T06:59:18;10.80;99.90
38860;DHT22;24609;48.316;16.174;2023-02-19T07:01:44;10.80;99.90
38860;DHT22;24609;48.316;16.174;2023-02-19T07:04:10;10.80;99.90
38860;DHT22;24609;48.316;16.174;2023-02-19T07:06:36;10.80;99.90
38860;DHT22;24609;48.316;16.174;2023-02-19T07:09:04;10.80;99.90
38860;DHT22;24609;48.316;16.174;2023-02-19T07:11:31;10.90;99.90
38860;DHT22;24609;48.316;16.174;2023-02-19T07:13:59;10.90;99.90
38860;DHT22;24609;48.316;16.174;2023-02-19T07:16:25;10.80;99.90
38860;DHT22;24609;48.316;16.174;2023-02-19T07:18:52;10.90;99.90
38860;DHT22;24609;48.316;16.174;2023-02-19T07:21:17;10.90;99.90
38860;DHT22;24609;48.316;16.174;2023-02-19T07:23:44;10.90;99.90
38860;DHT22;24609;48.316;16.174;2023-02-19T07:26:18;10.90;99.90
38860;DHT22;24609;48.316;16.174;2023-02-19T07:28:45;11.00;99.90
38860;DHT22;24609;48.316;16.174;2023-02-19T07:31:11;11.00;99.90
38860;DHT22;24609;48.316;16.174;2023-02-19T07:33:37;11.10;99.90
38860;DHT22;24609;48.316;16.174;2023-02-19T07:36:06;11.20;99.90
38860;DHT22;24609;48.316;16.174;2023-02-19T07:38:31;11.30;99.90
38860;DHT22;24609;48.316;16.174;2023-02-19T07:40:59;11.40;99.90
38860;DHT22;24609;48.316;16.174;2023-02-19T07:43:28;11.30;99.90
38860;DHT22;24609;48.316;16.174;2023-02-19T07:45:54;11.30;99.90
38860;DHT22;24609;48.316;16.174;2023-02-19T07:48:20;11.30;99.90
38860;DHT22;24609;48.316;16.174;2023-02-19T07:50:59;11.50;99.90
38860;DHT22;24609;48.316;16.174;2023-02-19T07:53:26;11.70;99.90
38860;DHT22;24609;48.316;16.174;2023-02-19T07:55:53;11.60;99.90
38860;DHT22;24609;48.316;16.174;2023-02-19T07:58:23;11.60;99.90
38860;DHT22;24609;48.316;16.174;2023-02-19T08:00:48;11.50;99.90
38860;DHT22;24609;48.316;16.174;2023-02-19T08:03:14;11.50;99.90
38860;DHT22;24609;48.316;16.174;2023-02-19T08:05:41;11.40;99.90
38860;DHT22;24609;48.316;16.174;2023-02-19T08:08:09;11.30;99.90
38860;DHT22;24609;48.316;16.174;2023-02-19T08:10:35;11.40;99.90
38860;DHT22;24609;48.316;16.174;2023-02-19T08:13:20;11.40;99.90
38860;DHT22;24609;48.316;16.174;2023-02-19T08:15:53;11.40;99.90
38860;DHT22;24609;48.316;16.174;2023-02-19T08:18:22;11.40;99.90
38860;DHT22;24609;48.316;16.174;2023-02-19T08:20:48;11.50;99.90
38860;DHT22;24609;48.316;16.174;2023-02-19T08:23:14;11.60;99.90
38860;DHT22;24609;48.316;16.174;2023-02-19T08:25:40;11.60;99.90
38860;DHT22;24609;48.316;16.174;2023-02-19T08:28:08;11.50;99.90
38860;DHT22;24609;48.316;16.174;2023-02-19T08:30:34;11.50;99.90
38860;DHT22;24609;48.316;16.174;2023-02-19T08:33:00;11.40;99.90
38860;DHT22;24609;48.316;16.174;2023-02-19T08:35:27;11.30;99.90
38860;DHT22;24609;48.316;16.174;2023-02-19T08:37:56;11.30;99.90
38860;DHT22;24609;48.316;16.174;2023-02-19T08:40:22;11.20;99.90
38860;DHT22;24609;48.316;16.174;2023-02-19T08:42:47;11.40;99.90
38860;DHT22;24609;48.316;16.174;2023-02-19T08:45:13;11.50;99.90
38860;DHT22;24609;48.316;16.174;2023-02-19T08:47:39;11.40;99.90
38860;DHT22;24609;48.316;16.174;2023-02-19T08:50:05;11.40;99.90
38860;DHT22;24609;48.316;16.174;2023-02-19T08:52:32;11.30;99.90
38860;DHT22;24609;48.316;16.174;2023-02-19T08:54:57;11.10;99.90
38860;DHT22;24609;48.316;16.174;2023-02-19T08:57:23;11.10;99.90
38860;DHT22;24609;48.316;16.174;2023-02-19T08:59:49;11.20;99.90
38860;DHT22;24609;48.316;16.174;2023-02-19T09:02:15;11.30;99.90
38860;DHT22;24609;48.316;16.174;2023-02-19T09:04:41;11.50;99.90
38860;DHT22;24609;48.316;16.174;2023-02-19T09:07:08;11.60;99.90
38860;DHT22;24609;48.316;16.174;2023-02-19T09:09:38;11.80;99.90
38860;DHT22;24609;48.316;16.174;2023-02-19T09:12:08;13.80;1.00
38860;DHT22;24609;48.316;16.174;2023-02-19T09:14:35;14.00;99.90
38860;DHT22;24609;48.316;16.174;2023-02-19T09:17:01;13.30;1.00
38860;DHT22;24609;48.316;16.174;2023-02-19T09:19:27;12.70;99.90
38860;DHT22;24609;48.316;16.174;2023-02-19T09:21:53;12.00;99.90
38860;DHT22;24609;48.316;16.174;2023-02-19T09:24:19;11.80;99.90
38860;DHT22;24609;48.316;16.174;2023-02-19T09:26:48;12.70;1.00
38860;DHT22;24609;48.316;16.174;2023-02-19T09:29:14;12.90;23.80
38860;DHT22;24609;48.316;16.174;2023-02-19T09:31:40;15.10;99.90
38860;DHT22;24609;48.316;16.174;2023-02-19T09:34:06;16.90;99.90
38860;DHT22;24609;48.316;16.174;2023-02-19T09:36:32;15.70;99.90
38860;DHT22;24609;48.316;16.174;2023-02-19T09:38:58;15.70;99.90
38860;DHT22;24609;48.316;16.174;2023-02-19T09:41:31;17.50;99.90
38860;DHT22;24609;48.316;16.174;2023-02-19T09:43:57;16.50;99.90
38860;DHT22;24609;48.316;16.174;2023-02-19T09:46:27;16.90;99.90
38860;DHT22;24609;48.316;16.174;2023-02-19T09:49:01;17.70;99.90
38860;DHT22;24609;48.316;16.174;2023-02-19T09:51:29;17.40;99.90
38860;DHT22;24609;48.316;16.174;2023-02-19T09:53:56;19.30;99.90
38860;DHT22;24609;48.316;16.174;2023-02-19T09:56:23;19.70;99.90
38860;DHT22;24609;48.316;16.174;2023-02-19T09:58:51;20.40;99.90
38860;DHT22;24609;48.316;16.174;2023-02-19T10:01:18;20.50;99.90
38860;DHT22;24609;48.316;16.174;2023-02-19T10:03:47;20.80;99.70
38860;DHT22;24609;48.316;16.174;2023-02-19T10:06:22;21.20;99.50
38860;DHT22;24609;48.316;16.174;2023-02-19T10:12:14;19.60;99.90
38860;DHT22;24609;48.316;16.174;2023-02-19T10:14:50;19.90;99.40
38860;DHT22;24609;48.316;16.174;2023-02-19T10:17:30;19.20;99.80
38860;DHT22;24609;48.316;16.174;2023-02-19T10:19:57;19.30;99.80
38860;DHT22;24609;48.316;16.174;2023-02-19T10:22:23;19.50;99.90
38860;DHT22;24609;48.316;16.174;2023-02-19T10:24:52;19.60;98.80
38860;DHT22;24609;48.316;16.174;2023-02-19T10:27:18;20.00;97.60
38860;DHT22;24609;48.316;16.174;2023-02-19T10:29:46;18.20;99.90
38860;DHT22;24609;48.316;16.174;2023-02-19T10:32:20;19.30;98.80
38860;DHT22;24609;48.316;16.174;2023-02-19T10:37:33;20.30;96.40
38860;DHT22;24609;48.316;16.174;2023-02-19T10:40:00;20.00;96.10
38860;DHT22;24609;48.316;16.174;2023-02-19T10:42:25;20.40;94.60
38860;DHT22;24609;48.316;16.174;2023-02-19T10:44:56;18.60;96.80
38860;DHT22;24609;48.316;16.174;2023-02-19T10:47:27;21.20;95.50
38860;DHT22;24609;48.316;16.174;2023-02-19T10:49:56;22.00;94.00
38860;DHT22;24609;48.316;16.174;2023-02-19T10:52:24;22.60;90.50
38860;DHT22;24609;48.316;16.174;2023-02-19T10:55:19;20.40;92.60
38860;DHT22;24609;48.316;16.174;2023-02-19T10:57:46;17.40;96.90
38860;DHT22;24609;48.316;16.174;2023-02-19T11:02:41;17.30;97.80
38860;DHT22;24609;48.316;16.174;2023-02-19T11:07:38;16.00;99.90
38860;DHT22;24609;48.316;16.174;2023-02-19T11:10:28;15.70;99.90
38860;DHT22;24609;48.316;16.174;2023-02-19T11:13:00;15.10;99.90
38860;DHT22;24609;48.316;16.174;2023-02-19T11:15:34;15.20;99.90
38860;DHT22;24609;48.316;16.174;2023-02-19T11:20:48;15.00;99.90
38860;DHT22;24609;48.316;16.174;2023-02-19T11:23:18;14.50;99.90
38860;DHT22;24609;48.316;16.174;2023-02-19T11:25:48;14.40;99.40
38860;DHT22;24609;48.316;16.174;2023-02-19T11:28:37;14.20;99.20
38860;DHT22;24609;48.316;16.174;2023-02-19T11:31:22;14.20;99.00
38860;DHT22;24609;48.316;16.174;2023-02-19T11:34:21;14.20;98.80
38860;DHT22;24609;48.316;16.174;2023-02-19T11:37:15;14.10;99.00
38860;DHT22;24609;48.316;16.174;2023-02-19T11:39:49;13.90;99.20
38860;DHT22;24609;48.316;16.174;2023-02-19T11:45:12;13.60;99.90
38860;DHT22;24609;48.316;16.174;2023-02-19T11:50:58;13.50;99.90
38860;DHT22;24609;48.316;16.174;2023-02-19T11:53:26;13.50;99.60
38860;DHT22;24609;48.316;16.174;2023-02-19T11:56:17;13.50;99.90
38860;DHT22;24609;48.316;16.174;2023-02-19T11:58:50;13.50;99.60
38860;DHT22;24609;48.316;16.174;2023-02-19T12:07:13;12.90;99.90
38860;DHT22;24609;48.316;16.174;2023-02-19T12:15:39;12.90;99.90
38860;DHT22;24609;48.316;16.174;2023-02-19T12:26:30;13.00;99.90
38860;DHT22;24609;48.316;16.174;2023-02-19T12:29:23;13.00;99.90
38860;DHT22;24609;48.316;16.174;2023-02-19T12:45:55;12.90;99.90
38860;DHT22;24609;48.316;16.174;2023-02-19T12:51:11;12.90;99.90
38860;DHT22;24609;48.316;16.174;2023-02-19T12:53:43;12.80;99.90
38860;DHT22;24609;48.316;16.174;2023-02-19T12:56:16;12.80;99.90
38860;DHT22;24609;48.316;16.174;2023-02-19T12:58:47;12.80;99.90
38860;DHT22;24609;48.316;16.174;2023-02-19T13:01:44;12.90;99.90
38860;DHT22;24609;48.316;16.174;2023-02-19T13:04:21;12.90;99.90
38860;DHT22;24609;48.316;16.174;2023-02-19T13:07:13;12.90;99.90
38860;DHT22;24609;48.316;16.174;2023-02-19T13:10:38;13.00;99.90
38860;DHT22;24609;48.316;16.174;2023-02-19T13:12:41;13.10;99.90
38860;DHT22;24609;48.316;16.174;2023-02-19T13:17:56;12.90;99.90
38860;DHT22;24609;48.316;16.174;2023-02-19T13:20:38;12.90;99.90
38860;DHT22;24609;48.316;16.174;2023-02-19T13:23:30;12.90;99.90
38860;DHT22;24609;48.316;16.174;2023-02-19T13:26:37;12.80;99.90
38860;DHT22;24609;48.316;16.174;2023-02-19T13:37:32;12.80;99.90
38860;DHT22;24609;48.316;16.174;2023-02-19T13:40:04;12.70;99.90
38860;DHT22;24609;48.316;16.174;2023-02-19T13:42:34;12.60;99.90
38860;DHT22;24609;48.316;16.174;2023-02-19T13:45:04;12.60;99.90
38860;DHT22;24609;48.316;16.174;2023-02-19T13:50:23;12.80;99.90
38860;DHT22;24609;48.316;16.174;2023-02-19T13:52:50;12.70;99.90
38860;DHT22;24609;48.316;16.174;2023-02-19T14:01:08;12.60;99.90
38860;DHT22;24609;48.316;16.174;2023-02-19T14:06:07;12.50;99.90
38860;DHT22;24609;48.316;16.174;2023-02-19T14:08:56;12.40;99.90
38860;DHT22;24609;48.316;16.174;2023-02-19T14:33:38;12.10;99.90
38860;DHT22;24609;48.316;16.174;2023-02-19T14:36:38;12.10;99.90
38860;DHT22;24609;48.316;16.174;2023-02-19T14:41:51;12.10;99.90
38860;DHT22;24609;48.316;16.174;2023-02-19T14:44:22;12.00;99.90
38860;DHT22;24609;48.316;16.174;2023-02-19T14:46:59;11.90;99.90
38860;DHT22;24609;48.316;16.174;2023-02-19T14:49:51;11.90;99.90
38860;DHT22;24609;48.316;16.174;2023-02-19T14:52:21;11.80;99.90
38860;DHT22;24609;48.316;16.174;2023-02-19T14:54:57;11.80;99.90
38860;DHT22;24609;48.316;16.174;2023-02-19T14:57:30;11.80;99.90
38860;DHT22;24609;48.316;16.174;2023-02-19T15:00:13;11.80;99.90
38860;DHT22;24609;48.316;16.174;2023-02-19T15:02:44;11.70;99.90
38860;DHT22;24609;48.316;16.174;2023-02-19T15:05:37;11.60;99.90
38860;DHT22;24609;48.316;16.174;2023-02-19T15:08:07;11.40;99.90
38860;DHT22;24609;48.316;16.174;2023-02-19T15:10:34;11.20;95.80
38860;DHT22;24609;48.316;16.174;2023-02-19T15:13:05;11.10;13.80
38860;DHT22;24609;48.316;16.174;2023-02-19T15:15:35;10.90;1.00
38860;DHT22;24609;48.316;16.174;2023-02-19T15:18:02;10.80;1.00
38860;DHT22;24609;48.316;16.174;2023-02-19T15:20:32;10.50;1.00
38860;DHT22;24609;48.316;16.174;2023-02-19T15:22:58;10.30;99.90
38860;DHT22;24609;48.316;16.174;2023-02-19T15:25:32;10.00;1.00
38860;DHT22;24609;48.316;16.174;2023-02-19T15:28:31;10.00;99.90
38860;DHT22;24609;48.316;16.174;2023-02-19T15:33:24;9.30;1.00
38860;DHT22;24609;48.316;16.174;2023-02-19T15:35:57;9.10;1.00
38860;DHT22;24609;48.316;16.174;2023-02-19T15:38:24;9.30;1.00
38860;DHT22;24609;48.316;16.174;2023-02-19T15:40:50;9.20;1.00
38860;DHT22;24609;48.316;16.174;2023-02-19T15:43:45;9.10;1.00
38860;DHT22;24609;48.316;16.174;2023-02-19T15:46:15;8.80;99.90
38860;DHT22;24609;48.316;16.174;2023-02-19T15:48:52;8.70;99.90
38860;DHT22;24609;48.316;16.174;2023-02-19T15:51:37;8.60;99.90
38860;DHT22;24609;48.316;16.174;2023-02-19T15:54:46;8.60;99.90
38860;DHT22;24609;48.316;16.174;2023-02-19T15:57:20;8.40;99.90
38860;DHT22;24609;48.316;16.174;2023-02-19T16:02:26;8.20;99.90
38860;DHT22;24609;48.316;16.174;2023-02-19T16:04:52;8.10;99.90
38860;DHT22;24609;48.316;16.174;2023-02-19T16:07:29;8.00;99.90
38860;DHT22;24609;48.316;16.174;2023-02-19T16:10:17;7.90;99.90
38860;DHT22;24609;48.316;16.174;2023-02-19T16:12:54;7.90;99.90
38860;DHT22;24609;48.316;16.174;2023-02-19T16:15:19;8.00;99.90
38860;DHT22;24609;48.316;16.174;2023-02-19T16:17:45;8.20;99.90
38860;DHT22;24609;48.316;16.174;2023-02-19T16:20:20;8.30;99.90
38860;DHT22;24609;48.316;16.174;2023-02-19T16:22:46;8.40;99.90
38860;DHT22;24609;48.316;16.174;2023-02-19T16:25:36;8.40;99.90
38860;DHT22;24609;48.316;16.174;2023-02-19T16:28:23;8.40;99.90
38860;DHT22;24609;48.316;16.174;2023-02-19T16:30:59;8.40;99.90
38860;DHT22;24609;48.316;16.174;2023-02-19T16:33:44;8.40;99.90
38860;DHT22;24609;48.316;16.174;2023-02-19T16:36:23;8.40;99.90
38860;DHT22;24609;48.316;16.174;2023-02-19T16:46:50;8.30;99.90
38860;DHT22;24609;48.316;16.174;2023-02-19T16:49:16;8.30;99.90
38860;DHT22;24609;48.316;16.174;2023-02-19T16:51:43;8.30;99.90
38860;DHT22;24609;48.316;16.174;2023-02-19T16:54:10;8.30;99.90
38860;DHT22;24609;48.316;16.174;2023-02-19T16:56:37;8.30;99.90
38860;DHT22;24609;48.316;16.174;2023-02-19T16:59:03;8.30;99.90
38860;DHT22;24609;48.316;16.174;2023-02-19T17:01:29;8.30;99.90
38860;DHT22;24609;48.316;16.174;2023-02-19T17:03:58;8.20;99.90
38860;DHT22;24609;48.316;16.174;2023-02-19T17:06:25;8.20;99.90
38860;DHT22;24609;48.316;16.174;2023-02-19T17:08:51;8.20;99.90
38860;DHT22;24609;48.316;16.174;2023-02-19T17:11:17;8.20;99.90
38860;DHT22;24609;48.316;16.174;2023-02-19T17:13:44;8.20;99.90
38860;DHT22;24609;48.316;16.174;2023-02-19T17:16:25;8.20;99.90
38860;DHT22;24609;48.316;16.174;2023-02-19T17:18:56;8.10;99.90
38860;DHT22;24609;48.316;16.174;2023-02-19T17:21:28;8.10;99.90
38860;DHT22;24609;48.316;16.174;2023-02-19T17:23:54;8.10;99.90
38860;DHT22;24609;48.316;16.174;2023-02-19T17:26:26;8.10;99.90
38860;DHT22;24609;48.316;16.174;2023-02-19T17:28:52;8.10;99.90
38860;DHT22;24609;48.316;16.174;2023-02-19T17:31:18;8.10;99.90
38860;DHT22;24609;48.316;16.174;2023-02-19T17:33:44;8.10;99.90
38860;DHT22;24609;48.316;16.174;2023-02-19T17:36:25;8.10;99.90
38860;DHT22;24609;48.316;16.174;2023-02-19T17:38:51;8.10;99.90
38860;DHT22;24609;48.316;16.174;2023-02-19T17:41:17;8.10;99.90
38860;DHT22;24609;48.316;16.174;2023-02-19T17:43:43;8.10;99.90
38860;DHT22;24609;48.316;16.174;2023-02-19T17:46:20;8.10;99.90
38860;DHT22;24609;48.316;16.174;2023-02-19T17:48:46;8.10;99.90
38860;DHT22;24609;48.316;16.174;2023-02-19T17:51:12;8.10;99.90
38860;DHT22;24609;48.316;16.174;2023-02-19T17:53:38;8.00;99.90
38860;DHT22;24609;48.316;16.174;2023-02-19T17:56:04;8.00;99.90
38860;DHT22;24609;48.316;16.174;2023-02-19T17:58:29;8.00;99.90
38860;DHT22;24609;48.316;16.174;2023-02-19T18:00:55;7.90;99.90
38860;DHT22;24609;48.316;16.174;2023-02-19T18:03:21;7.90;99.90
38860;DHT22;24609;48.316;16.174;2023-02-19T18:05:46;7.80;99.90
38860;DHT22;24609;48.316;16.174;2023-02-19T18:08:12;7.80;99.90
38860;DHT22;24609;48.316;16.174;2023-02-19T18:10:38;7.80;99.90
38860;DHT22;24609;48.316;16.174;2023-02-19T18:13:04;7.80;99.90
38860;DHT22;24609;48.316;16.174;2023-02-19T18:15:30;7.70;99.90